KSKF/SKF METAR and TAF weather

Enter ICAO airport designator
Station Type Date Time Source
KSKF METAR 2020/09/18 18:56 UTC NOAA

KSKF 181856Z 05012G20KT 10SM SCT050 31/18 A3002 RMK AO2A SLP158 T03130179 $


Station Type Date Time Source
KSKF Decoded METAR 2020/09/18 18:56 UTC NOAA

Kelly Air Force Base, TX, United States (KSKF) 29-23N 098-35W
Sep 18, 2020 - 02:56 PM EDT / 2020.09.18 1856 UTC
Wind: from the NE (050 degrees) at 14 MPH (12 KT) gusting to 23 MPH (20 KT):0
Visibility: 10 mile(s):0
Sky conditions: partly cloudy
Temperature: 88.3 F (31.3 C)
Dew Point: 64.2 F (17.9 C)
Relative Humidity: 44%
Pressure (altimeter): 30.02 in. Hg (1016 hPa)
ob: KSKF 181856Z 05012G20KT 10SM SCT050 31/18 A3002 RMK AO2A SLP158 T03130179
cycle: 19

Station Type Date Time Source
KSKF TAF 2020/09/18 18:09 UTC NOAA

TAF KSKF 181800Z 1818/1924 05012G18KT 9999 SCT045 QNH2992INS
BECMG 1823/1824 02009KT 9999 SKC QNH2994INS
BECMG 1914/1915 04012G18KT 9999 FEW050 QNH2992INS TX33/1821Z TN21/1911Z

Example: see airport list